Time;durP1;ratioP1;P1;durP2;ratioP2;P2;SDS_P1;SDS_P2;PMS_P1;PMS_P2;Temp;Humidity;BMP_temperature;BMP_pressure;BME280_temperature;BME280_humidity;BME280_pressure;Samples;Min_cycle;Max_cycle;Signal;HPM_P1;HPM_P2
2022/09/20 00:00:05;;;;;;;;;;;;;;;;;;1032091;28;3414;-56
2022/09/20 00:01:15;;;;;;;;;;;;;;;;;;1027526;28;4668;-55
2022/09/20 00:01:52;;;;;;;;;;;;;;;;;;1027972;28;3857;-54
2022/09/20 00:02:23;;;;;;;;;;;;;;;;;;1030220;28;3870;-53
2022/09/20 00:02:53;;;;;;;;;;;;;;;;;;1033878;28;3120;-54
2022/09/20 00:03:23;;;;;;;;;;;;;;;;;;1031486;28;3903;-51
2022/09/20 00:03:55;;;;;;;;;;;;;;;;;;1032817;28;3863;-52
2022/09/20 00:04:25;;;;;;;;;;;;;;;;;;1032245;28;3894;-55
2022/09/20 00:04:56;;;;;;;;;;;;;;;;;;1032488;28;3084;-56
2022/09/20 00:05:26;;;;;;;;;;;;;;;;;;1030735;28;4061;-54
2022/09/20 00:05:58;;;;;;;;;;;;;;;;;;1030528;28;3142;-52
2022/09/20 00:06:30;;;;;;;;;;;;;;;;;;1030931;28;4196;-57
2022/09/20 00:07:00;;;;;;;;;;;;;;;;;;1032236;28;3208;-56
2022/09/20 00:07:31;;;;;;;;;;;;;;;;;;1031658;28;3958;-56
2022/09/20 00:08:02;;;;;;;;;;;;;;;;;;1031046;28;3445;-53
2022/09/20 00:08:33;;;;;;;;;;;;;;;;;;1031256;28;3998;-53
2022/09/20 00:09:06;;;;;;;;;;;;;;;;;;1031744;28;3288;-53
2022/09/20 00:09:37;;;;;;;;;;;;;;;;;;1031852;28;4025;-56
2022/09/20 00:10:07;;;;;;;;;;;;;;;;;;1031314;28;3922;-54
2022/09/20 00:10:38;;;;;;;;;;;;;;;;;;1032336;28;3517;-57
2022/09/20 00:11:09;;;;;;;;;;;;;;;;;;1031156;28;3911;-54
2022/09/20 00:11:39;;;;;;;;;;;;;;;;;;1032715;28;3312;-55
2022/09/20 00:12:10;;;;;;;;;;;;;;;;;;1031421;28;4147;-51
2022/09/20 00:12:40;;;;;;;;;;;;;;;;;;1031750;28;3319;-57
2022/09/20 00:13:12;;;;;;;;;;;;;;;;;;1029802;28;4034;-54
2022/09/20 00:13:43;;;;;;;;;;;;;;;;;;1031982;28;2429;-53
2022/09/20 00:14:14;;;;;;;;;;;;;;;;;;1030977;28;4025;-52
2022/09/20 00:14:44;;;;;;;;;;;;;;;;;;1032539;28;3478;-57
2022/09/20 00:15:14;;;;;;;;;;;;;;;;;;1028779;28;4069;-52
2022/09/20 00:15:45;;;;;;;;;;;;;;;;;;1028080;28;3295;-57
2022/09/20 00:16:17;;;;;;;;;;;;;;;;;;1028772;28;4115;-55
2022/09/20 00:16:47;;;;;;;;;;;;;;;;;;1030771;28;3279;-56
2022/09/20 00:17:18;;;;;;;;;;;;;;;;;;1031575;28;4199;-56
2022/09/20 00:17:48;;;;;;;;;;;;;;;;;;1033302;28;3094;-57
2022/09/20 00:18:18;;;;;;;;;;;;;;;;;;1031323;28;4035;-55
2022/09/20 00:18:52;;;;;;;;;;;;;;;;;;1032078;28;2951;-56
2022/09/20 00:19:22;;;;;;;;;;;;;;;;;;1032369;28;3943;-57
2022/09/20 00:19:53;;;;;;;;;;;;;;;;;;1032335;28;3148;-56
2022/09/20 00:20:23;;;;;;;;;;;;;;;;;;1031126;28;4052;-58
2022/09/20 00:20:54;;;;;;;;;;;;;;;;;;1032049;28;3216;-54
2022/09/20 00:21:26;;;;;;;;;;;;;;;;;;1033045;28;4138;-53
2022/09/20 00:21:56;;;;;;;;;;;;;;;;;;1031503;28;3251;-53
2022/09/20 00:22:26;;;;;;;;;;;;;;;;;;1032629;28;3794;-56
2022/09/20 00:22:57;;;;;;;;;;;;;;;;;;1033412;28;2676;-54
2022/09/20 00:23:29;;;;;;;;;;;;;;;;;;1033744;28;3783;-53
2022/09/20 00:23:59;;;;;;;;;;;;;;;;;;1031974;28;2389;-54
2022/09/20 00:24:29;;;;;;;;;;;;;;;;;;1032767;28;4306;-53
2022/09/20 00:24:59;;;;;;;;;;;;;;;;;;1033349;28;3089;-53
2022/09/20 00:25:30;;;;;;;;;;;;;;;;;;1033539;28;4074;-55
2022/09/20 00:26:00;;;;;;;;;;;;;;;;;;1031761;28;3083;-53
2022/09/20 00:26:31;;;;;;;;;;;;;;;;;;1031297;28;3854;-53
2022/09/20 00:27:02;;;;;;;;;;;;;;;;;;1033440;28;3344;-55
2022/09/20 00:27:32;;;;;;;;;;;;;;;;;;1032663;28;3827;-54
2022/09/20 00:28:02;;;;;;;;;;;;;;;;;;1032641;28;3317;-56
2022/09/20 00:28:33;;;;;;;;;;;;;;;;;;1032913;28;4070;-56
2022/09/20 00:29:04;;;;;;;;;;;;;;;;;;1032077;28;2395;-55
2022/09/20 00:29:34;;;;;;;;;;;;;;;;;;1031566;28;4209;-52
2022/09/20 00:30:05;;;;;;;;;;;;;;;;;;1031744;28;3217;-53
2022/09/20 00:30:35;;;;;;;;;;;;;;;;;;1033154;28;4101;-55
2022/09/20 00:31:06;;;;;;;;;;;;;;;;;;1032725;28;3220;-52
2022/09/20 00:31:39;;;;;;;;;;;;;;;;;;1033665;28;3917;-53
2022/09/20 00:32:09;;;;;;;;;;;;;;;;;;1030434;28;4068;-55
2022/09/20 00:32:39;;;;;;;;;;;;;;;;;;1032359;28;3175;-55
2022/09/20 00:33:10;;;;;;;;;;;;;;;;;;1030643;28;4075;-56
2022/09/20 00:35:41;;;;;;;;;;;;;;;;;;1023934;28;4102;-53
2022/09/20 00:36:11;;;;;;;;;;;;;;;;;;1021251;28;4474;-52
2022/09/20 00:36:42;;;;;;;;;;;;;;;;;;1023142;28;2784;-54
2022/09/20 00:37:12;;;;;;;;;;;;;;;;;;1022615;28;4092;-54
2022/09/20 00:37:42;;;;;;;;;;;;;;;;;;1020519;29;3191;-55
2022/09/20 00:38:13;;;;;;;;;;;;;;;;;;1020152;28;5185;-52
2022/09/20 00:38:44;;;;;;;;;;;;;;;;;;1021408;28;1860;-51
2022/09/20 00:39:14;;;;;;;;;;;;;;;;;;1019301;28;4937;-54
2022/09/20 00:39:44;;;;;;;;;;;;;;;;;;1024456;28;3456;-53
2022/09/20 00:40:29;;;;;;;;;;;;;;;;;;1022547;28;3920;-57
2022/09/20 00:41:07;;;;;;;;;;;;;;;;;;1019891;28;4056;-53
2022/09/20 00:41:37;;;;;;;;;;;;;;;;;;1028153;28;2158;-53
2022/09/20 00:42:12;;;;;;;;;;;;;;;;;;1026478;28;3932;-54
2022/09/20 00:42:42;;;;;;;;;;;;;;;;;;1032356;28;1773;-54
2022/09/20 00:43:13;;;;;;;;;;;;;;;;;;1031936;28;4059;-51
2022/09/20 00:43:44;;;;;;;;;;;;;;;;;;1032969;28;3118;-54
2022/09/20 00:44:33;;;;;;;;;;;;;;;;;;1031945;28;4095;-54
2022/09/20 00:45:06;;;;;;;;;;;;;;;;;;1032067;28;3263;-54
2022/09/20 00:45:36;;;;;;;;;;;;;;;;;;1032453;28;3964;-52
2022/09/20 00:46:16;;;;;;;;;;;;;;;;;;1032945;28;3211;-54
2022/09/20 00:46:46;;;;;;;;;;;;;;;;;;1030785;28;3973;-55
2022/09/20 00:47:16;;;;;;;;;;;;;;;;;;1032313;28;4279;-52
2022/09/20 00:47:50;;;;;;;;;;;;;;;;;;1032632;28;3351;-52
2022/09/20 00:48:26;;;;;;;;;;;;;;;;;;1031273;28;4081;-56
2022/09/20 00:49:07;;;;;;;;;;;;;;;;;;1032601;28;3164;-56
2022/09/20 00:49:37;;;;;;;;;;;;;;;;;;1031809;28;3707;-53
2022/09/20 00:50:24;;;;;;;;;;;;;;;;;;1032571;28;4122;-56
2022/09/20 00:50:55;;;;;;;;;;;;;;;;;;1032772;28;3329;-54
2022/09/20 00:51:28;;;;;;;;;;;;;;;;;;1032310;28;4083;-51
2022/09/20 00:51:59;;;;;;;;;;;;;;;;;;1033222;28;2333;-55
2022/09/20 00:52:30;;;;;;;;;;;;;;;;;;1031483;28;4069;-56
2022/09/20 00:53:03;;;;;;;;;;;;;;;;;;1033811;28;3003;-56
2022/09/20 00:53:38;;;;;;;;;;;;;;;;;;1033354;28;4083;-53
2022/09/20 00:54:10;;;;;;;;;;;;;;;;;;1031221;28;3970;-55
2022/09/20 00:54:41;;;;;;;;;;;;;;;;;;1032923;28;3358;-55
2022/09/20 00:55:12;;;;;;;;;;;;;;;;;;1032325;28;3904;-55
2022/09/20 00:55:46;;;;;;;;;;;;;;;;;;1032075;28;2774;-56
2022/09/20 00:56:20;;;;;;;;;;;;;;;;;;1031583;28;3900;-55
2022/09/20 00:56:51;;;;;;;;;;;;;;;;;;1027931;28;3191;-54
2022/09/20 00:57:34;;;;;;;;;;;;;;;;;;1029979;28;4035;-55
2022/09/20 00:58:04;;;;;;;;;;;;;;;;;;1027086;28;3243;-56
2022/09/20 00:58:37;;;;;;;;;;;;;;;;;;1030931;28;3875;-53
2022/09/20 00:59:13;;;;;;;;;;;;;;;;;;1031780;28;4085;-56
2022/09/20 00:59:45;;;;;;;;;;;;;;;;;;1032514;28;2370;-56
2022/09/20 01:00:15;;;;;;;;;;;;;;;;;;1031835;28;3895;-55
2022/09/20 01:00:47;;;;;;;;;;;;;;;;;;1033074;28;3415;-55
2022/09/20 01:01:18;;;;;;;;;;;;;;;;;;1033953;28;5174;-56
2022/09/20 01:01:51;;;;;;;;;;;;;;;;;;1033634;28;2975;-54
2022/09/20 01:02:26;;;;;;;;;;;;;;;;;;1032288;28;4100;-57
2022/09/20 01:03:00;;;;;;;;;;;;;;;;;;1032161;28;3183;-53
2022/09/20 01:03:32;;;;;;;;;;;;;;;;;;1033090;28;4068;-55
2022/09/20 01:04:02;;;;;;;;;;;;;;;;;;1032299;28;3117;-55
2022/09/20 01:04:34;;;;;;;;;;;;;;;;;;1033109;28;3976;-53
2022/09/20 01:05:05;;;;;;;;;;;;;;;;;;1032358;28;3254;-53
2022/09/20 01:05:36;;;;;;;;;;;;;;;;;;1033550;28;4003;-56
2022/09/20 01:06:08;;;;;;;;;;;;;;;;;;1030692;28;3960;-53
2022/09/20 01:06:40;;;;;;;;;;;;;;;;;;1033920;28;2618;-53
2022/09/20 01:07:13;;;;;;;;;;;;;;;;;;1031147;28;3928;-53
2022/09/20 01:07:44;;;;;;;;;;;;;;;;;;1030637;28;3615;-56
2022/09/20 01:08:14;;;;;;;;;;;;;;;;;;1028628;28;4051;-51
2022/09/20 01:08:47;;;;;;;;;;;;;;;;;;1031255;28;1940;-56
2022/09/20 01:09:18;;;;;;;;;;;;;;;;;;1029289;28;4056;-55
2022/09/20 01:09:48;;;;;;;;;;;;;;;;;;1033759;28;2316;-52
2022/09/20 01:10:19;;;;;;;;;;;;;;;;;;1032681;28;3948;-57
2022/09/20 01:10:49;;;;;;;;;;;;;;;;;;1032150;28;2449;-56
2022/09/20 01:11:19;;;;;;;;;;;;;;;;;;1032735;28;4042;-56
2022/09/20 01:11:50;;;;;;;;;;;;;;;;;;1032395;28;2744;-55
2022/09/20 01:12:22;;;;;;;;;;;;;;;;;;1032944;28;4064;-53
2022/09/20 01:12:52;;;;;;;;;;;;;;;;;;1032632;28;2426;-54
2022/09/20 01:13:22;;;;;;;;;;;;;;;;;;1033566;28;3983;-55
2022/09/20 01:13:55;;;;;;;;;;;;;;;;;;1032983;28;3286;-54
2022/09/20 01:14:25;;;;;;;;;;;;;;;;;;1033232;28;4034;-53
2022/09/20 01:14:56;;;;;;;;;;;;;;;;;;1031690;28;3303;-51
2022/09/20 01:15:28;;;;;;;;;;;;;;;;;;1033134;28;3959;-56
2022/09/20 01:16:00;;;;;;;;;;;;;;;;;;1032850;28;2528;-53
2022/09/20 01:16:31;;;;;;;;;;;;;;;;;;1033791;28;4074;-54
2022/09/20 01:17:04;;;;;;;;;;;;;;;;;;1031862;28;3210;-55
2022/09/20 01:17:35;;;;;;;;;;;;;;;;;;1033603;28;3990;-54
2022/09/20 01:18:06;;;;;;;;;;;;;;;;;;1033193;28;3029;-56
2022/09/20 01:18:37;;;;;;;;;;;;;;;;;;1032944;28;3781;-54
2022/09/20 01:19:12;;;;;;;;;;;;;;;;;;1032477;28;4068;-55
2022/09/20 01:20:01;;;;;;;;;;;;;;;;;;1034388;28;1687;-55
2022/09/20 01:20:33;;;;;;;;;;;;;;;;;;1032628;28;4081;-55
2022/09/20 01:21:05;;;;;;;;;;;;;;;;;;1032219;28;2192;-55
2022/09/20 01:21:35;;;;;;;;;;;;;;;;;;1033151;28;3733;-55
2022/09/20 01:22:12;;;;;;;;;;;;;;;;;;1032026;28;3208;-53
2022/09/20 01:22:48;;;;;;;;;;;;;;;;;;1032320;28;3880;-53
2022/09/20 01:23:26;;;;;;;;;;;;;;;;;;1032235;28;3872;-56
2022/09/20 01:24:10;;;;;;;;;;;;;;;;;;1032787;28;3155;-56
2022/09/20 01:24:46;;;;;;;;;;;;;;;;;;1032044;28;3642;-56
2022/09/20 01:25:44;;;;;;;;;;;;;;;;;;1033386;28;3956;-55
2022/09/20 01:26:36;;;;;;;;;;;;;;;;;;1031634;28;3939;-55
2022/09/20 01:27:25;;;;;;;;;;;;;;;;;;1030091;28;3183;-54
2022/09/20 01:27:56;;;;;;;;;;;;;;;;;;1027103;28;3881;-54
2022/09/20 01:28:27;;;;;;;;;;;;;;;;;;1029319;28;4076;-56
2022/09/20 01:29:16;;;;;;;;;;;;;;;;;;1031777;28;2422;-56
2022/09/20 01:29:51;;;;;;;;;;;;;;;;;;1031809;28;3852;-53
2022/09/20 01:30:23;;;;;;;;;;;;;;;;;;1032046;28;4203;-54
2022/09/20 01:30:59;;;;;;;;;;;;;;;;;;1032334;28;2625;-55
2022/09/20 01:31:32;;;;;;;;;;;;;;;;;;1032825;28;3843;-52
2022/09/20 01:32:04;;;;;;;;;;;;;;;;;;1031612;28;2483;-55
2022/09/20 01:32:55;;;;;;;;;;;;;;;;;;1033271;28;4870;-53
2022/09/20 01:33:44;;;;;;;;;;;;;;;;;;1020892;28;4071;-55
2022/09/20 01:34:33;;;;;;;;;;;;;;;;;;1032546;28;4085;-55
2022/09/20 01:35:04;;;;;;;;;;;;;;;;;;1032075;28;3274;-55
2022/09/20 01:35:35;;;;;;;;;;;;;;;;;;1033065;28;6400;-55
2022/09/20 01:36:07;;;;;;;;;;;;;;;;;;1031856;28;3276;-56
2022/09/20 01:36:47;;;;;;;;;;;;;;;;;;1031821;28;3910;-55
2022/09/20 01:37:18;;;;;;;;;;;;;;;;;;1032717;28;3884;-55
2022/09/20 01:37:51;;;;;;;;;;;;;;;;;;1033115;28;2487;-54
2022/09/20 01:38:40;;;;;;;;;;;;;;;;;;1032242;28;4100;-56
2022/09/20 01:39:19;;;;;;;;;;;;;;;;;;1032814;28;3884;-54
2022/09/20 01:40:02;;;;;;;;;;;;;;;;;;1033589;28;2510;-55
2022/09/20 01:41:01;;;;;;;;;;;;;;;;;;1032099;28;4876;-54
2022/09/20 01:41:56;;;;;;;;;;;;;;;;;;1032774;28;3941;-55
2022/09/20 01:42:31;;;;;;;;;;;;;;;;;;1031800;28;4052;-54
2022/09/20 01:43:07;;;;;;;;;;;;;;;;;;1032812;28;2700;-51
2022/09/20 01:43:49;;;;;;;;;;;;;;;;;;1033449;28;3987;-54
2022/09/20 01:44:25;;;;;;;;;;;;;;;;;;1030091;28;4116;-52
2022/09/20 01:44:55;;;;;;;;;;;;;;;;;;1033429;28;2559;-54
2022/09/20 01:45:29;;;;;;;;;;;;;;;;;;1030513;28;5036;-54
2022/09/20 01:46:03;;;;;;;;;;;;;;;;;;1031946;28;2410;-53
2022/09/20 01:46:34;;;;;;;;;;;;;;;;;;1032925;28;4038;-56
2022/09/20 01:47:09;;;;;;;;;;;;;;;;;;1033563;28;2406;-53
2022/09/20 01:47:58;;;;;;;;;;;;;;;;;;1033386;28;3889;-53
2022/09/20 01:48:36;;;;;;;;;;;;;;;;;;1033231;28;3883;-55
2022/09/20 01:49:19;;;;;;;;;;;;;;;;;;1031397;28;3935;-54
2022/09/20 01:49:50;;;;;;;;;;;;;;;;;;1032518;28;2160;-57
2022/09/20 01:50:20;;;;;;;;;;;;;;;;;;1032550;28;4114;-55
2022/09/20 01:50:59;;;;;;;;;;;;;;;;;;1028578;28;2836;-56
2022/09/20 01:51:41;;;;;;;;;;;;;;;;;;1028995;28;4054;-56
2022/09/20 01:52:27;;;;;;;;;;;;;;;;;;1025952;28;3908;-56
2022/09/20 01:53:22;;;;;;;;;;;;;;;;;;1033573;28;3146;-54
2022/09/20 01:54:20;;;;;;;;;;;;;;;;;;1032037;28;3660;-56
2022/09/20 01:55:09;;;;;;;;;;;;;;;;;;1031106;28;4855;-56
2022/09/20 01:55:47;;;;;;;;;;;;;;;;;;1031944;28;3866;-56
2022/09/20 01:56:17;;;;;;;;;;;;;;;;;;1032670;28;3960;-55
2022/09/20 01:56:53;;;;;;;;;;;;;;;;;;1031888;28;3057;-57
2022/09/20 01:57:29;;;;;;;;;;;;;;;;;;1032900;28;4158;-57
2022/09/20 01:58:16;;;;;;;;;;;;;;;;;;1031164;28;3262;-55
2022/09/20 01:58:52;;;;;;;;;;;;;;;;;;1032028;28;3914;-55
2022/09/20 01:59:37;;;;;;;;;;;;;;;;;;1030770;28;4025;-55
2022/09/20 02:00:10;;;;;;;;;;;;;;;;;;1030408;28;4155;-55
2022/09/20 02:00:59;;;;;;;;;;;;;;;;;;1031409;28;3014;-52
2022/09/20 02:01:29;;;;;;;;;;;;;;;;;;1032989;28;4038;-56
2022/09/20 02:02:20;;;;;;;;;;;;;;;;;;1031696;28;3313;-57
2022/09/20 02:02:59;;;;;;;;;;;;;;;;;;1030930;28;3862;-55
2022/09/20 02:03:35;;;;;;;;;;;;;;;;;;1032402;28;4056;-56
2022/09/20 02:04:14;;;;;;;;;;;;;;;;;;1030871;28;3443;-56
2022/09/20 02:05:03;;;;;;;;;;;;;;;;;;1027574;28;4971;-53
2022/09/20 02:05:49;;;;;;;;;;;;;;;;;;1028124;28;4019;-55
2022/09/20 02:06:38;;;;;;;;;;;;;;;;;;1027492;28;4149;-53
2022/09/20 02:07:19;;;;;;;;;;;;;;;;;;1030609;28;4075;-56
2022/09/20 02:08:06;;;;;;;;;;;;;;;;;;1033970;28;2849;-52
2022/09/20 02:08:40;;;;;;;;;;;;;;;;;;1032722;28;3905;-51
2022/09/20 02:09:19;;;;;;;;;;;;;;;;;;1030419;28;4237;-56
2022/09/20 02:10:07;;;;;;;;;;;;;;;;;;1034012;28;3196;-52
2022/09/20 02:10:37;;;;;;;;;;;;;;;;;;1031788;28;3745;-56
2022/09/20 02:11:07;;;;;;;;;;;;;;;;;;1032781;28;4320;-55
2022/09/20 02:11:48;;;;;;;;;;;;;;;;;;1031810;28;3212;-55
2022/09/20 02:12:31;;;;;;;;;;;;;;;;;;1030797;28;4174;-56
2022/09/20 02:13:04;;;;;;;;;;;;;;;;;;1031083;28;3472;-53
2022/09/20 02:13:49;;;;;;;;;;;;;;;;;;1032991;28;4021;-54
2022/09/20 02:14:22;;;;;;;;;;;;;;;;;;1030975;28;4332;-56
2022/09/20 02:15:11;;;;;;;;;;;;;;;;;;1031758;28;3136;-55
2022/09/20 02:15:55;;;;;;;;;;;;;;;;;;1032223;28;3972;-53
2022/09/20 02:16:43;;;;;;;;;;;;;;;;;;1032041;28;4095;-55
2022/09/20 02:17:32;;;;;;;;;;;;;;;;;;1030853;28;4078;-52
2022/09/20 02:18:26;;;;;;;;;;;;;;;;;;1030794;28;3460;-57
2022/09/20 02:19:05;;;;;;;;;;;;;;;;;;1031385;28;3914;-54
2022/09/20 02:19:35;;;;;;;;;;;;;;;;;;1031760;28;3990;-51
2022/09/20 02:20:18;;;;;;;;;;;;;;;;;;1031334;28;2412;-55
2022/09/20 02:20:51;;;;;;;;;;;;;;;;;;1030999;28;3934;-55
2022/09/20 02:21:41;;;;;;;;;;;;;;;;;;1031828;28;4164;-54
2022/09/20 02:22:30;;;;;;;;;;;;;;;;;;1030300;28;3978;-55
2022/09/20 02:23:00;;;;;;;;;;;;;;;;;;1027060;28;2392;-53
2022/09/20 02:23:39;;;;;;;;;;;;;;;;;;1028882;28;3741;-56
2022/09/20 02:24:28;;;;;;;;;;;;;;;;;;1025821;28;4109;-56
2022/09/20 02:25:10;;;;;;;;;;;;;;;;;;1032153;28;3104;-55
2022/09/20 02:25:43;;;;;;;;;;;;;;;;;;1032955;28;3875;-56
2022/09/20 02:26:21;;;;;;;;;;;;;;;;;;1030386;28;3984;-54
2022/09/20 02:27:17;;;;;;;;;;;;;;;;;;1032508;28;3281;-56
2022/09/20 02:28:07;;;;;;;;;;;;;;;;;;1017428;29;3669;-57
2022/09/20 02:28:51;;;;;;;;;;;;;;;;;;1028395;28;4052;-54
2022/09/20 02:29:31;;;;;;;;;;;;;;;;;;1032954;28;3901;-55
2022/09/20 02:30:07;;;;;;;;;;;;;;;;;;1031362;28;3169;-53
2022/09/20 02:30:56;;;;;;;;;;;;;;;;;;1031893;28;3987;-56
2022/09/20 02:31:36;;;;;;;;;;;;;;;;;;1033168;28;3987;-53
2022/09/20 02:32:25;;;;;;;;;;;;;;;;;;1030978;28;3450;-55
2022/09/20 02:33:05;;;;;;;;;;;;;;;;;;1031290;28;3823;-53
2022/09/20 02:33:44;;;;;;;;;;;;;;;;;;1028810;28;4071;-55
2022/09/20 02:34:17;;;;;;;;;;;;;;;;;;1026878;28;4060;-54
2022/09/20 02:35:05;;;;;;;;;;;;;;;;;;1028457;28;3063;-56
2022/09/20 02:35:55;;;;;;;;;;;;;;;;;;1032817;28;4028;-56
2022/09/20 02:36:49;;;;;;;;;;;;;;;;;;1031233;28;4042;-51
2022/09/20 02:37:26;;;;;;;;;;;;;;;;;;1031424;28;4110;-54
2022/09/20 02:38:16;;;;;;;;;;;;;;;;;;1031149;28;3383;-55
2022/09/20 02:38:50;;;;;;;;;;;;;;;;;;1019529;29;3819;-54
2022/09/20 02:39:21;;;;;;;;;;;;;;;;;;1017985;29;3910;-54
2022/09/20 02:40:01;;;;;;;;;;;;;;;;;;1028188;28;3211;-54
2022/09/20 02:41:04;;;;;;;;;;;;;;;;;;1030401;28;4019;-55
2022/09/20 02:41:53;;;;;;;;;;;;;;;;;;1028510;28;3992;-57
2022/09/20 02:42:28;;;;;;;;;;;;;;;;;;1032607;28;3795;-51
2022/09/20 02:43:23;;;;;;;;;;;;;;;;;;1028283;28;3273;-54
2022/09/20 02:43:59;;;;;;;;;;;;;;;;;;1027604;28;4009;-55
2022/09/20 02:44:47;;;;;;;;;;;;;;;;;;1027553;28;4376;-55
2022/09/20 02:45:31;;;;;;;;;;;;;;;;;;1031000;28;3888;-57
2022/09/20 02:46:07;;;;;;;;;;;;;;;;;;1031271;28;3051;-56
2022/09/20 02:46:46;;;;;;;;;;;;;;;;;;1029559;28;3927;-53
2022/09/20 02:47:30;;;;;;;;;;;;;;;;;;1030092;28;3870;-52
2022/09/20 02:48:02;;;;;;;;;;;;;;;;;;1028861;28;5546;-53
2022/09/20 02:48:56;;;;;;;;;;;;;;;;;;1030905;28;4076;-53
2022/09/20 02:49:31;;;;;;;;;;;;;;;;;;1023850;28;4083;-57
2022/09/20 02:50:16;;;;;;;;;;;;;;;;;;1032278;28;3041;-51
2022/09/20 02:50:54;;;;;;;;;;;;;;;;;;1032877;28;3931;-54
2022/09/20 02:51:29;;;;;;;;;;;;;;;;;;1032289;28;4064;-55
2022/09/20 02:52:06;;;;;;;;;;;;;;;;;;1031930;28;3397;-54
2022/09/20 02:52:42;;;;;;;;;;;;;;;;;;1031518;28;3851;-53
2022/09/20 02:53:31;;;;;;;;;;;;;;;;;;1032201;28;3889;-56
2022/09/20 02:54:20;;;;;;;;;;;;;;;;;;1031465;28;3108;-51
2022/09/20 02:55:04;;;;;;;;;;;;;;;;;;1031701;28;3668;-51
2022/09/20 02:55:43;;;;;;;;;;;;;;;;;;1032288;28;3886;-55
2022/09/20 02:56:17;;;;;;;;;;;;;;;;;;1030126;28;3929;-55
2022/09/20 02:56:54;;;;;;;;;;;;;;;;;;1029973;28;2734;-56
2022/09/20 02:57:45;;;;;;;;;;;;;;;;;;1031457;28;4033;-53
2022/09/20 02:58:27;;;;;;;;;;;;;;;;;;1025154;28;4083;-53
2022/09/20 02:59:16;;;;;;;;;;;;;;;;;;1028626;28;2805;-52
2022/09/20 03:00:01;;;;;;;;;;;;;;;;;;1028062;28;3751;-56
2022/09/20 03:00:36;;;;;;;;;;;;;;;;;;1032167;28;4112;-57
2022/09/20 03:01:24;;;;;;;;;;;;;;;;;;1032207;28;3026;-53
2022/09/20 03:02:07;;;;;;;;;;;;;;;;;;1032040;28;4034;-52
2022/09/20 03:02:50;;;;;;;;;;;;;;;;;;1033551;28;4041;-57
2022/09/20 03:03:30;;;;;;;;;;;;;;;;;;1032594;28;3917;-57
2022/09/20 03:04:12;;;;;;;;;;;;;;;;;;1032350;28;3144;-54
2022/09/20 03:04:48;;;;;;;;;;;;;;;;;;1033488;28;3800;-55
2022/09/20 03:05:36;;;;;;;;;;;;;;;;;;1031423;28;4065;-56
2022/09/20 03:06:26;;;;;;;;;;;;;;;;;;1031121;28;3932;-52
2022/09/20 03:06:59;;;;;;;;;;;;;;;;;;1031625;28;3362;-56
2022/09/20 03:07:36;;;;;;;;;;;;;;;;;;1033112;28;3887;-55
2022/09/20 03:08:25;;;;;;;;;;;;;;;;;;1033551;28;2529;-55
2022/09/20 03:09:00;;;;;;;;;;;;;;;;;;1032050;28;3778;-55
2022/09/20 03:09:43;;;;;;;;;;;;;;;;;;1031960;28;4028;-54
2022/09/20 03:10:19;;;;;;;;;;;;;;;;;;1032715;28;3996;-53
2022/09/20 03:10:53;;;;;;;;;;;;;;;;;;1033229;28;2990;-53
2022/09/20 03:11:43;;;;;;;;;;;;;;;;;;1030968;28;3982;-56
2022/09/20 03:12:35;;;;;;;;;;;;;;;;;;1032294;28;4119;-51
2022/09/20 03:13:24;;;;;;;;;;;;;;;;;;1027203;28;3249;-56
2022/09/20 03:14:12;;;;;;;;;;;;;;;;;;1028632;28;3730;-56
2022/09/20 03:14:50;;;;;;;;;;;;;;;;;;1029902;28;3924;-53
2022/09/20 03:15:29;;;;;;;;;;;;;;;;;;1032053;28;3987;-55
2022/09/20 03:16:05;;;;;;;;;;;;;;;;;;1032743;28;3153;-55
2022/09/20 03:16:45;;;;;;;;;;;;;;;;;;1033604;28;4016;-57
2022/09/20 03:17:15;;;;;;;;;;;;;;;;;;1031604;28;3906;-51
2022/09/20 03:18:01;;;;;;;;;;;;;;;;;;1033892;28;1667;-57
2022/09/20 03:18:34;;;;;;;;;;;;;;;;;;1032455;28;4068;-54
2022/09/20 03:19:33;;;;;;;;;;;;;;;;;;1033174;28;2695;-56
2022/09/20 03:20:07;;;;;;;;;;;;;;;;;;1031362;28;3993;-57
2022/09/20 03:20:46;;;;;;;;;;;;;;;;;;1033415;28;3826;-53
2022/09/20 03:21:26;;;;;;;;;;;;;;;;;;1032497;28;4066;-54
2022/09/20 03:22:19;;;;;;;;;;;;;;;;;;1032486;28;3084;-57
2022/09/20 03:23:08;;;;;;;;;;;;;;;;;;1022765;28;3845;-52
2022/09/20 03:23:53;;;;;;;;;;;;;;;;;;1032718;28;4024;-53
2022/09/20 03:24:42;;;;;;;;;;;;;;;;;;1029243;28;4374;-57
2022/09/20 03:25:25;;;;;;;;;;;;;;;;;;1028646;28;3815;-54
2022/09/20 03:26:15;;;;;;;;;;;;;;;;;;1028285;28;2309;-54
2022/09/20 03:27:06;;;;;;;;;;;;;;;;;;1032820;28;3905;-54
2022/09/20 03:27:40;;;;;;;;;;;;;;;;;;1030476;28;3809;-55
2022/09/20 03:28:21;;;;;;;;;;;;;;;;;;1031556;28;4073;-50
2022/09/20 03:29:11;;;;;;;;;;;;;;;;;;1028331;28;3100;-56
2022/09/20 03:30:14;;;;;;;;;;;;;;;;;;1028372;28;3774;-57
2022/09/20 03:30:50;;;;;;;;;;;;;;;;;;1026389;28;4785;-52
2022/09/20 03:31:34;;;;;;;;;;;;;;;;;;1028835;28;4101;-53
2022/09/20 03:32:12;;;;;;;;;;;;;;;;;;1028118;28;3086;-54
2022/09/20 03:32:54;;;;;;;;;;;;;;;;;;1031036;28;4078;-53
2022/09/20 03:33:35;;;;;;;;;;;;;;;;;;1032615;28;4674;-56
2022/09/20 03:34:21;;;;;;;;;;;;;;;;;;1029702;28;3074;-56
2022/09/20 03:34:51;;;;;;;;;;;;;;;;;;1031865;28;4185;-54
2022/09/20 03:35:40;;;;;;;;;;;;;;;;;;1031912;28;4029;-54
2022/09/20 03:36:19;;;;;;;;;;;;;;;;;;1027314;28;3922;-54
2022/09/20 03:36:50;;;;;;;;;;;;;;;;;;1027749;28;3202;-54
2022/09/20 03:37:34;;;;;;;;;;;;;;;;;;1033376;28;4091;-55
2022/09/20 03:38:17;;;;;;;;;;;;;;;;;;1032090;28;3176;-56
2022/09/20 03:38:50;;;;;;;;;;;;;;;;;;1031803;28;4417;-52
2022/09/20 03:39:39;;;;;;;;;;;;;;;;;;1032866;28;4041;-55
2022/09/20 03:40:16;;;;;;;;;;;;;;;;;;1031991;28;4288;-53
2022/09/20 03:41:19;;;;;;;;;;;;;;;;;;1032466;28;3221;-52
2022/09/20 03:41:59;;;;;;;;;;;;;;;;;;1032768;28;5207;-56
2022/09/20 03:42:40;;;;;;;;;;;;;;;;;;1032913;28;4533;-58
2022/09/20 03:43:29;;;;;;;;;;;;;;;;;;1032542;28;4291;-57
2022/09/20 03:44:18;;;;;;;;;;;;;;;;;;1033401;28;2691;-56
2022/09/20 03:45:07;;;;;;;;;;;;;;;;;;1033763;28;4116;-55
2022/09/20 03:45:52;;;;;;;;;;;;;;;;;;1033757;28;3722;-54
2022/09/20 03:46:25;;;;;;;;;;;;;;;;;;1033588;28;3914;-54
2022/09/20 03:47:16;;;;;;;;;;;;;;;;;;1033076;28;3149;-53
2022/09/20 03:48:05;;;;;;;;;;;;;;;;;;1033352;28;3942;-55
2022/09/20 03:48:45;;;;;;;;;;;;;;;;;;1033964;28;3840;-56
2022/09/20 03:49:35;;;;;;;;;;;;;;;;;;1033090;28;4130;-55
2022/09/20 03:50:12;;;;;;;;;;;;;;;;;;1033746;28;2750;-53
2022/09/20 03:50:50;;;;;;;;;;;;;;;;;;1033738;28;3661;-54
2022/09/20 03:51:27;;;;;;;;;;;;;;;;;;1032503;28;3944;-57
2022/09/20 03:52:08;;;;;;;;;;;;;;;;;;1032487;28;2149;-56
2022/09/20 03:52:49;;;;;;;;;;;;;;;;;;1034046;28;4001;-55
2022/09/20 03:53:28;;;;;;;;;;;;;;;;;;1032554;28;4048;-56
2022/09/20 03:53:58;;;;;;;;;;;;;;;;;;1033263;28;3048;-56
2022/09/20 03:54:47;;;;;;;;;;;;;;;;;;1034242;28;3893;-55
2022/09/20 03:55:36;;;;;;;;;;;;;;;;;;1033811;28;4039;-52
2022/09/20 03:56:21;;;;;;;;;;;;;;;;;;1033283;28;2934;-54
2022/09/20 03:56:58;;;;;;;;;;;;;;;;;;1032744;28;3720;-52
2022/09/20 03:57:47;;;;;;;;;;;;;;;;;;1033564;28;3944;-53
2022/09/20 03:58:36;;;;;;;;;;;;;;;;;;1033635;28;4102;-56
2022/09/20 03:59:25;;;;;;;;;;;;;;;;;;1032782;28;3223;-56
2022/09/20 04:00:19;;;;;;;;;;;;;;;;;;1033647;28;3968;-53
2022/09/20 04:01:17;;;;;;;;;;;;;;;;;;1033601;28;3792;-56
2022/09/20 04:02:06;;;;;;;;;;;;;;;;;;1033334;28;3993;-55
2022/09/20 04:02:42;;;;;;;;;;;;;;;;;;1033493;28;3853;-56
2022/09/20 04:03:27;;;;;;;;;;;;;;;;;;1031919;28;3980;-55
2022/09/20 04:04:12;;;;;;;;;;;;;;;;;;1032512;28;2449;-54
2022/09/20 04:04:51;;;;;;;;;;;;;;;;;;1034043;28;3780;-55
2022/09/20 04:05:24;;;;;;;;;;;;;;;;;;1031688;28;3912;-56
2022/09/20 04:06:33;;;;;;;;;;;;;;;;;;1032349;28;3279;-54
2022/09/20 04:07:09;;;;;;;;;;;;;;;;;;1014873;29;3885;-56
2022/09/20 04:07:50;;;;;;;;;;;;;;;;;;1014805;29;4012;-52
2022/09/20 04:08:30;;;;;;;;;;;;;;;;;;1014353;29;4125;-56
2022/09/20 04:09:23;;;;;;;;;;;;;;;;;;1013776;29;2957;-51
2022/09/20 04:09:56;;;;;;;;;;;;;;;;;;1012616;29;3934;-55
2022/09/20 04:10:27;;;;;;;;;;;;;;;;;;1014896;29;4078;-56
2022/09/20 04:11:04;;;;;;;;;;;;;;;;;;1014075;29;2464;-55
2022/09/20 04:11:39;;;;;;;;;;;;;;;;;;1014199;29;3867;-55
2022/09/20 04:12:21;;;;;;;;;;;;;;;;;;1014171;29;4090;-55
2022/09/20 04:13:10;;;;;;;;;;;;;;;;;;1018910;28;3462;-56
2022/09/20 04:13:51;;;;;;;;;;;;;;;;;;1032142;28;4025;-55
2022/09/20 04:14:29;;;;;;;;;;;;;;;;;;1033302;28;4097;-52
2022/09/20 04:15:19;;;;;;;;;;;;;;;;;;1032914;28;3148;-57
2022/09/20 04:16:03;;;;;;;;;;;;;;;;;;1033297;28;3985;-55
2022/09/20 04:16:42;;;;;;;;;;;;;;;;;;1033183;28;4057;-54
2022/09/20 04:17:31;;;;;;;;;;;;;;;;;;1033097;28;4142;-54
2022/09/20 04:18:19;;;;;;;;;;;;;;;;;;1033098;28;3291;-53
2022/09/20 04:18:57;;;;;;;;;;;;;;;;;;1033690;28;3842;-54
2022/09/20 04:19:42;;;;;;;;;;;;;;;;;;1033839;28;3962;-53
2022/09/20 04:20:22;;;;;;;;;;;;;;;;;;1032178;28;3927;-54
2022/09/20 04:21:02;;;;;;;;;;;;;;;;;;1033737;28;3334;-54
2022/09/20 04:21:45;;;;;;;;;;;;;;;;;;1032660;28;3990;-53
2022/09/20 04:22:17;;;;;;;;;;;;;;;;;;1032392;28;4159;-55
2022/09/20 04:22:50;;;;;;;;;;;;;;;;;;1033782;28;3241;-55
2022/09/20 04:23:29;;;;;;;;;;;;;;;;;;1032666;28;4026;-57
2022/09/20 04:24:03;;;;;;;;;;;;;;;;;;1032486;28;3033;-55
2022/09/20 04:24:41;;;;;;;;;;;;;;;;;;1033117;28;3870;-54
2022/09/20 04:25:16;;;;;;;;;;;;;;;;;;1033518;28;4096;-53
2022/09/20 04:25:47;;;;;;;;;;;;;;;;;;1033277;28;2948;-56
2022/09/20 04:26:25;;;;;;;;;;;;;;;;;;1028358;28;3950;-54
2022/09/20 04:26:59;;;;;;;;;;;;;;;;;;1029359;28;3148;-56
2022/09/20 04:27:33;;;;;;;;;;;;;;;;;;1024021;28;4068;-54
2022/09/20 04:28:15;;;;;;;;;;;;;;;;;;1025552;28;3340;-55